sensor_id;sensor_type;location;lat;lon;timestamp;P1;durP1;ratioP1;P2;durP2;ratioP2
78453;SDS011;67750;55.832;49.124;2023-11-19T00:02:10;8.25;;;2.92;;
78453;SDS011;67750;55.832;49.124;2023-11-19T00:04:40;8.20;;;2.30;;
78453;SDS011;67750;55.832;49.124;2023-11-19T00:07:10;5.53;;;2.98;;
78453;SDS011;67750;55.832;49.124;2023-11-19T00:09:41;7.78;;;2.98;;
78453;SDS011;67750;55.832;49.124;2023-11-19T00:12:10;6.65;;;2.98;;
78453;SDS011;67750;55.832;49.124;2023-11-19T00:14:40;5.55;;;2.72;;
78453;SDS011;67750;55.832;49.124;2023-11-19T00:17:09;6.42;;;2.77;;
78453;SDS011;67750;55.832;49.124;2023-11-19T00:19:40;8.90;;;2.62;;
78453;SDS011;67750;55.832;49.124;2023-11-19T00:22:09;7.30;;;2.95;;
78453;SDS011;67750;55.832;49.124;2023-11-19T00:24:39;8.53;;;3.92;;
78453;SDS011;67750;55.832;49.124;2023-11-19T00:27:08;7.03;;;3.40;;
78453;SDS011;67750;55.832;49.124;2023-11-19T00:29:38;7.92;;;3.27;;
78453;SDS011;67750;55.832;49.124;2023-11-19T00:32:07;6.65;;;3.30;;
78453;SDS011;67750;55.832;49.124;2023-11-19T00:34:37;9.28;;;3.47;;
78453;SDS011;67750;55.832;49.124;2023-11-19T00:37:07;11.48;;;3.45;;
78453;SDS011;67750;55.832;49.124;2023-11-19T00:39:36;9.65;;;3.90;;
78453;SDS011;67750;55.832;49.124;2023-11-19T00:42:06;9.28;;;3.27;;
78453;SDS011;67750;55.832;49.124;2023-11-19T00:44:37;8.20;;;3.70;;
78453;SDS011;67750;55.832;49.124;2023-11-19T00:47:08;8.38;;;3.52;;
78453;SDS011;67750;55.832;49.124;2023-11-19T00:49:37;9.83;;;3.72;;
78453;SDS011;67750;55.832;49.124;2023-11-19T00:52:07;7.42;;;3.30;;
78453;SDS011;67750;55.832;49.124;2023-11-19T00:54:36;11.60;;;3.83;;
78453;SDS011;67750;55.832;49.124;2023-11-19T00:57:06;9.75;;;3.58;;
78453;SDS011;67750;55.832;49.124;2023-11-19T00:59:36;9.20;;;3.52;;
78453;SDS011;67750;55.832;49.124;2023-11-19T01:02:05;7.00;;;3.37;;
78453;SDS011;67750;55.832;49.124;2023-11-19T01:04:35;6.55;;;2.87;;
78453;SDS011;67750;55.832;49.124;2023-11-19T01:07:05;14.60;;;3.42;;
78453;SDS011;67750;55.832;49.124;2023-11-19T01:09:36;6.42;;;2.80;;
78453;SDS011;67750;55.832;49.124;2023-11-19T01:12:06;10.38;;;3.12;;
78453;SDS011;67750;55.832;49.124;2023-11-19T01:14:56;7.95;;;3.22;;
78453;SDS011;67750;55.832;49.124;2023-11-19T01:17:25;11.80;;;3.00;;
78453;SDS011;67750;55.832;49.124;2023-11-19T01:19:55;9.48;;;3.27;;
78453;SDS011;67750;55.832;49.124;2023-11-19T01:22:24;8.78;;;3.20;;
78453;SDS011;67750;55.832;49.124;2023-11-19T01:24:54;10.70;;;3.62;;
78453;SDS011;67750;55.832;49.124;2023-11-19T01:27:24;10.15;;;3.20;;
78453;SDS011;67750;55.832;49.124;2023-11-19T01:29:54;12.50;;;3.37;;
78453;SDS011;67750;55.832;49.124;2023-11-19T01:32:23;10.10;;;3.02;;
78453;SDS011;67750;55.832;49.124;2023-11-19T01:34:53;7.55;;;3.37;;
78453;SDS011;67750;55.832;49.124;2023-11-19T01:37:22;11.53;;;3.47;;
78453;SDS011;67750;55.832;49.124;2023-11-19T01:39:52;10.80;;;3.85;;
78453;SDS011;67750;55.832;49.124;2023-11-19T01:42:21;10.93;;;3.10;;
78453;SDS011;67750;55.832;49.124;2023-11-19T01:45:11;10.65;;;3.77;;
78453;SDS011;67750;55.832;49.124;2023-11-19T01:47:42;9.70;;;3.70;;
78453;SDS011;67750;55.832;49.124;2023-11-19T01:50:11;12.53;;;3.67;;
78453;SDS011;67750;55.832;49.124;2023-11-19T01:52:41;14.15;;;3.98;;
78453;SDS011;67750;55.832;49.124;2023-11-19T01:55:10;10.32;;;4.00;;
78453;SDS011;67750;55.832;49.124;2023-11-19T01:57:40;10.25;;;4.10;;
78453;SDS011;67750;55.832;49.124;2023-11-19T02:00:10;7.20;;;3.22;;
78453;SDS011;67750;55.832;49.124;2023-11-19T02:02:42;15.63;;;3.85;;
78453;SDS011;67750;55.832;49.124;2023-11-19T02:05:13;8.15;;;3.30;;
78453;SDS011;67750;55.832;49.124;2023-11-19T02:07:43;7.42;;;3.25;;
78453;SDS011;67750;55.832;49.124;2023-11-19T02:10:13;11.15;;;3.72;;
78453;SDS011;67750;55.832;49.124;2023-11-19T02:12:44;7.37;;;3.00;;
78453;SDS011;67750;55.832;49.124;2023-11-19T02:15:16;8.78;;;3.50;;
78453;SDS011;67750;55.832;49.124;2023-11-19T02:23:45;8.60;;;2.83;;
78453;SDS011;67750;55.832;49.124;2023-11-19T02:26:52;9.48;;;3.92;;
78453;SDS011;67750;55.832;49.124;2023-11-19T02:28:46;10.48;;;3.37;;
78453;SDS011;67750;55.832;49.124;2023-11-19T02:31:16;10.98;;;3.80;;
78453;SDS011;67750;55.832;49.124;2023-11-19T02:33:47;11.88;;;3.70;;
78453;SDS011;67750;55.832;49.124;2023-11-19T02:36:17;8.08;;;3.65;;
78453;SDS011;67750;55.832;49.124;2023-11-19T02:38:47;9.73;;;4.08;;
78453;SDS011;67750;55.832;49.124;2023-11-19T02:41:17;12.03;;;4.00;;
78453;SDS011;67750;55.832;49.124;2023-11-19T02:43:46;9.88;;;3.85;;
78453;SDS011;67750;55.832;49.124;2023-11-19T02:46:16;8.88;;;3.35;;
78453;SDS011;67750;55.832;49.124;2023-11-19T02:48:46;10.00;;;3.55;;
78453;SDS011;67750;55.832;49.124;2023-11-19T02:51:15;10.38;;;4.05;;
78453;SDS011;67750;55.832;49.124;2023-11-19T02:53:45;9.60;;;3.80;;
78453;SDS011;67750;55.832;49.124;2023-11-19T02:56:15;9.63;;;3.92;;
78453;SDS011;67750;55.832;49.124;2023-11-19T02:59:04;9.78;;;3.50;;
78453;SDS011;67750;55.832;49.124;2023-11-19T03:01:35;7.95;;;3.02;;
78453;SDS011;67750;55.832;49.124;2023-11-19T03:04:06;10.93;;;3.70;;
78453;SDS011;67750;55.832;49.124;2023-11-19T03:06:38;13.85;;;3.70;;
78453;SDS011;67750;55.832;49.124;2023-11-19T03:09:07;10.45;;;3.15;;
78453;SDS011;67750;55.832;49.124;2023-11-19T03:11:37;14.03;;;4.10;;
78453;SDS011;67750;55.832;49.124;2023-11-19T03:14:07;11.97;;;3.98;;
78453;SDS011;67750;55.832;49.124;2023-11-19T03:16:36;9.20;;;3.72;;
78453;SDS011;67750;55.832;49.124;2023-11-19T03:19:06;9.23;;;3.72;;
78453;SDS011;67750;55.832;49.124;2023-11-19T03:21:35;13.08;;;4.25;;
78453;SDS011;67750;55.832;49.124;2023-11-19T03:24:05;10.50;;;4.25;;
78453;SDS011;67750;55.832;49.124;2023-11-19T03:26:35;9.35;;;3.45;;
78453;SDS011;67750;55.832;49.124;2023-11-19T03:29:05;10.55;;;3.87;;
78453;SDS011;67750;55.832;49.124;2023-11-19T03:31:35;6.25;;;2.92;;
78453;SDS011;67750;55.832;49.124;2023-11-19T03:34:05;8.93;;;3.55;;
78453;SDS011;67750;55.832;49.124;2023-11-19T03:36:35;8.80;;;3.75;;
78453;SDS011;67750;55.832;49.124;2023-11-19T03:39:05;14.50;;;3.87;;
78453;SDS011;67750;55.832;49.124;2023-11-19T03:41:35;9.75;;;3.70;;
78453;SDS011;67750;55.832;49.124;2023-11-19T03:44:04;11.15;;;3.45;;
78453;SDS011;67750;55.832;49.124;2023-11-19T03:46:34;9.20;;;3.52;;
78453;SDS011;67750;55.832;49.124;2023-11-19T03:49:03;10.75;;;3.90;;
78453;SDS011;67750;55.832;49.124;2023-11-19T03:51:34;10.08;;;4.37;;
78453;SDS011;67750;55.832;49.124;2023-11-19T03:54:04;11.83;;;3.75;;
78453;SDS011;67750;55.832;49.124;2023-11-19T03:56:33;10.63;;;3.87;;
78453;SDS011;67750;55.832;49.124;2023-11-19T03:59:03;10.82;;;4.42;;
78453;SDS011;67750;55.832;49.124;2023-11-19T04:01:32;9.60;;;3.55;;
78453;SDS011;67750;55.832;49.124;2023-11-19T04:04:02;10.13;;;3.50;;
78453;SDS011;67750;55.832;49.124;2023-11-19T04:06:32;11.35;;;3.70;;
78453;SDS011;67750;55.832;49.124;2023-11-19T04:09:02;10.20;;;3.62;;
78453;SDS011;67750;55.832;49.124;2023-11-19T04:11:32;11.48;;;4.28;;
78453;SDS011;67750;55.832;49.124;2023-11-19T04:14:02;13.45;;;4.33;;
78453;SDS011;67750;55.832;49.124;2023-11-19T04:16:32;12.40;;;4.85;;
78453;SDS011;67750;55.832;49.124;2023-11-19T04:19:01;9.63;;;4.30;;
78453;SDS011;67750;55.832;49.124;2023-11-19T04:21:31;10.68;;;3.50;;
78453;SDS011;67750;55.832;49.124;2023-11-19T04:24:00;10.05;;;4.40;;
78453;SDS011;67750;55.832;49.124;2023-11-19T04:26:30;12.45;;;3.65;;
78453;SDS011;67750;55.832;49.124;2023-11-19T04:28:59;9.28;;;3.95;;
78453;SDS011;67750;55.832;49.124;2023-11-19T04:31:29;7.83;;;3.98;;
78453;SDS011;67750;55.832;49.124;2023-11-19T04:33:59;14.23;;;4.87;;
78453;SDS011;67750;55.832;49.124;2023-11-19T04:36:29;17.32;;;4.47;;
78453;SDS011;67750;55.832;49.124;2023-11-19T04:38:58;15.45;;;3.90;;
78453;SDS011;67750;55.832;49.124;2023-11-19T04:41:28;10.03;;;4.37;;
78453;SDS011;67750;55.832;49.124;2023-11-19T04:43:58;11.48;;;4.30;;
78453;SDS011;67750;55.832;49.124;2023-11-19T04:46:29;11.55;;;4.10;;
78453;SDS011;67750;55.832;49.124;2023-11-19T04:48:58;8.75;;;3.77;;
78453;SDS011;67750;55.832;49.124;2023-11-19T04:51:28;11.12;;;3.58;;
78453;SDS011;67750;55.832;49.124;2023-11-19T04:53:57;10.55;;;3.62;;
78453;SDS011;67750;55.832;49.124;2023-11-19T04:56:27;10.53;;;3.87;;
78453;SDS011;67750;55.832;49.124;2023-11-19T04:58:56;11.85;;;4.15;;
78453;SDS011;67750;55.832;49.124;2023-11-19T05:01:26;7.42;;;3.77;;
78453;SDS011;67750;55.832;49.124;2023-11-19T05:03:56;11.90;;;4.47;;
78453;SDS011;67750;55.832;49.124;2023-11-19T05:06:45;7.83;;;3.98;;
78453;SDS011;67750;55.832;49.124;2023-11-19T05:09:14;11.35;;;4.50;;
78453;SDS011;67750;55.832;49.124;2023-11-19T05:11:45;7.70;;;3.52;;
78453;SDS011;67750;55.832;49.124;2023-11-19T05:14:15;11.97;;;4.08;;
78453;SDS011;67750;55.832;49.124;2023-11-19T05:16:46;14.80;;;4.70;;
78453;SDS011;67750;55.832;49.124;2023-11-19T05:19:16;12.75;;;5.03;;
78453;SDS011;67750;55.832;49.124;2023-11-19T05:21:45;16.90;;;4.15;;
78453;SDS011;67750;55.832;49.124;2023-11-19T05:24:16;13.18;;;4.12;;
78453;SDS011;67750;55.832;49.124;2023-11-19T05:26:46;12.13;;;4.75;;
78453;SDS011;67750;55.832;49.124;2023-11-19T05:29:17;12.03;;;4.78;;
78453;SDS011;67750;55.832;49.124;2023-11-19T05:31:46;10.65;;;4.00;;
78453;SDS011;67750;55.832;49.124;2023-11-19T05:34:16;11.43;;;4.72;;
78453;SDS011;67750;55.832;49.124;2023-11-19T05:36:45;9.60;;;4.83;;
78453;SDS011;67750;55.832;49.124;2023-11-19T05:39:16;12.88;;;4.40;;
78453;SDS011;67750;55.832;49.124;2023-11-19T05:41:47;8.93;;;4.85;;
78453;SDS011;67750;55.832;49.124;2023-11-19T05:44:16;12.05;;;5.17;;
78453;SDS011;67750;55.832;49.124;2023-11-19T05:46:46;12.00;;;4.78;;
78453;SDS011;67750;55.832;49.124;2023-11-19T05:49:16;9.53;;;4.40;;
78453;SDS011;67750;55.832;49.124;2023-11-19T05:51:45;9.10;;;4.22;;
78453;SDS011;67750;55.832;49.124;2023-11-19T05:54:15;9.85;;;4.42;;
78453;SDS011;67750;55.832;49.124;2023-11-19T05:56:47;14.05;;;5.67;;
78453;SDS011;67750;55.832;49.124;2023-11-19T05:59:17;9.28;;;4.40;;
78453;SDS011;67750;55.832;49.124;2023-11-19T06:01:46;12.93;;;4.65;;
78453;SDS011;67750;55.832;49.124;2023-11-19T06:04:16;14.20;;;4.83;;
78453;SDS011;67750;55.832;49.124;2023-11-19T06:06:46;13.48;;;5.15;;
78453;SDS011;67750;55.832;49.124;2023-11-19T06:09:15;14.20;;;5.03;;
78453;SDS011;67750;55.832;49.124;2023-11-19T06:11:45;9.65;;;5.00;;
78453;SDS011;67750;55.832;49.124;2023-11-19T06:14:16;15.28;;;5.03;;
78453;SDS011;67750;55.832;49.124;2023-11-19T06:16:45;12.98;;;4.90;;
78453;SDS011;67750;55.832;49.124;2023-11-19T06:19:15;10.98;;;5.12;;
78453;SDS011;67750;55.832;49.124;2023-11-19T06:21:44;13.50;;;5.55;;
78453;SDS011;67750;55.832;49.124;2023-11-19T06:24:14;15.40;;;6.33;;
78453;SDS011;67750;55.832;49.124;2023-11-19T06:26:44;13.05;;;5.62;;
78453;SDS011;67750;55.832;49.124;2023-11-19T06:29:13;12.58;;;5.17;;
78453;SDS011;67750;55.832;49.124;2023-11-19T06:31:44;18.75;;;5.12;;
78453;SDS011;67750;55.832;49.124;2023-11-19T06:34:16;14.18;;;3.95;;
78453;SDS011;67750;55.832;49.124;2023-11-19T06:36:45;12.78;;;4.87;;
78453;SDS011;67750;55.832;49.124;2023-11-19T06:39:15;10.95;;;4.10;;
78453;SDS011;67750;55.832;49.124;2023-11-19T06:41:45;8.30;;;4.62;;
78453;SDS011;67750;55.832;49.124;2023-11-19T06:44:15;14.55;;;4.10;;
78453;SDS011;67750;55.832;49.124;2023-11-19T06:46:45;7.40;;;3.67;;
78453;SDS011;67750;55.832;49.124;2023-11-19T06:49:14;9.58;;;3.98;;
78453;SDS011;67750;55.832;49.124;2023-11-19T06:51:44;16.65;;;4.35;;
78453;SDS011;67750;55.832;49.124;2023-11-19T06:54:14;9.53;;;4.85;;
78453;SDS011;67750;55.832;49.124;2023-11-19T06:56:43;11.88;;;4.30;;
78453;SDS011;67750;55.832;49.124;2023-11-19T06:59:13;9.55;;;4.47;;
78453;SDS011;67750;55.832;49.124;2023-11-19T07:01:42;7.47;;;3.87;;
78453;SDS011;67750;55.832;49.124;2023-11-19T07:04:12;10.90;;;4.53;;
78453;SDS011;67750;55.832;49.124;2023-11-19T07:06:42;7.67;;;3.83;;
78453;SDS011;67750;55.832;49.124;2023-11-19T07:09:11;10.45;;;3.75;;
78453;SDS011;67750;55.832;49.124;2023-11-19T07:11:41;7.70;;;3.90;;
78453;SDS011;67750;55.832;49.124;2023-11-19T07:14:12;13.30;;;4.17;;
78453;SDS011;67750;55.832;49.124;2023-11-19T07:16:42;11.60;;;3.17;;
78453;SDS011;67750;55.832;49.124;2023-11-19T07:19:13;12.68;;;4.03;;
78453;SDS011;67750;55.832;49.124;2023-11-19T07:21:43;12.20;;;3.77;;
78453;SDS011;67750;55.832;49.124;2023-11-19T07:24:13;10.05;;;4.15;;
78453;SDS011;67750;55.832;49.124;2023-11-19T07:26:43;8.03;;;3.92;;
78453;SDS011;67750;55.832;49.124;2023-11-19T07:29:14;10.43;;;4.78;;
78453;SDS011;67750;55.832;49.124;2023-11-19T07:31:44;8.23;;;3.90;;
78453;SDS011;67750;55.832;49.124;2023-11-19T07:34:14;9.15;;;4.35;;
78453;SDS011;67750;55.832;49.124;2023-11-19T07:36:45;13.00;;;4.10;;
78453;SDS011;67750;55.832;49.124;2023-11-19T07:39:16;11.85;;;4.53;;
78453;SDS011;67750;55.832;49.124;2023-11-19T07:41:48;9.40;;;3.65;;
78453;SDS011;67750;55.832;49.124;2023-11-19T07:44:17;8.38;;;4.00;;
78453;SDS011;67750;55.832;49.124;2023-11-19T07:46:48;7.83;;;3.87;;
78453;SDS011;67750;55.832;49.124;2023-11-19T07:49:17;13.68;;;4.15;;
78453;SDS011;67750;55.832;49.124;2023-11-19T07:51:47;12.70;;;4.15;;
78453;SDS011;67750;55.832;49.124;2023-11-19T07:54:16;8.63;;;3.67;;
78453;SDS011;67750;55.832;49.124;2023-11-19T07:56:46;8.40;;;3.75;;
78453;SDS011;67750;55.832;49.124;2023-11-19T07:59:16;13.58;;;5.58;;
78453;SDS011;67750;55.832;49.124;2023-11-19T08:01:46;10.38;;;4.05;;
78453;SDS011;67750;55.832;49.124;2023-11-19T08:04:15;12.37;;;4.50;;
78453;SDS011;67750;55.832;49.124;2023-11-19T08:06:45;12.15;;;4.05;;
78453;SDS011;67750;55.832;49.124;2023-11-19T08:09:14;10.53;;;4.22;;
78453;SDS011;67750;55.832;49.124;2023-11-19T08:11:44;13.78;;;4.33;;
78453;SDS011;67750;55.832;49.124;2023-11-19T08:14:14;13.55;;;4.37;;
78453;SDS011;67750;55.832;49.124;2023-11-19T08:16:43;13.18;;;4.85;;
78453;SDS011;67750;55.832;49.124;2023-11-19T08:19:13;13.32;;;4.62;;
78453;SDS011;67750;55.832;49.124;2023-11-19T08:21:42;14.25;;;4.22;;
78453;SDS011;67750;55.832;49.124;2023-11-19T08:24:12;9.33;;;3.70;;
78453;SDS011;67750;55.832;49.124;2023-11-19T08:26:41;9.55;;;3.75;;
78453;SDS011;67750;55.832;49.124;2023-11-19T08:29:11;8.93;;;3.95;;
78453;SDS011;67750;55.832;49.124;2023-11-19T08:31:41;10.60;;;3.50;;
78453;SDS011;67750;55.832;49.124;2023-11-19T08:34:11;6.92;;;3.22;;
78453;SDS011;67750;55.832;49.124;2023-11-19T08:36:42;8.13;;;3.87;;
78453;SDS011;67750;55.832;49.124;2023-11-19T08:39:11;9.70;;;3.50;;
78453;SDS011;67750;55.832;49.124;2023-11-19T08:41:41;10.45;;;3.75;;
78453;SDS011;67750;55.832;49.124;2023-11-19T08:44:10;9.28;;;3.98;;
78453;SDS011;67750;55.832;49.124;2023-11-19T08:46:46;11.30;;;4.58;;
78453;SDS011;67750;55.832;49.124;2023-11-19T08:49:10;15.20;;;4.17;;
78453;SDS011;67750;55.832;49.124;2023-11-19T08:51:40;18.48;;;4.22;;
78453;SDS011;67750;55.832;49.124;2023-11-19T08:54:10;11.60;;;4.15;;
78453;SDS011;67750;55.832;49.124;2023-11-19T08:56:40;12.98;;;4.33;;
78453;SDS011;67750;55.832;49.124;2023-11-19T08:59:09;9.35;;;4.75;;
78453;SDS011;67750;55.832;49.124;2023-11-19T09:01:38;13.22;;;4.10;;
78453;SDS011;67750;55.832;49.124;2023-11-19T09:04:08;10.25;;;4.55;;
78453;SDS011;67750;55.832;49.124;2023-11-19T09:06:37;7.22;;;3.40;;
78453;SDS011;67750;55.832;49.124;2023-11-19T09:09:07;9.85;;;3.70;;
78453;SDS011;67750;55.832;49.124;2023-11-19T09:14:08;12.85;;;3.80;;
78453;SDS011;67750;55.832;49.124;2023-11-19T09:16:37;12.03;;;3.95;;
78453;SDS011;67750;55.832;49.124;2023-11-19T09:19:07;8.28;;;3.50;;
78453;SDS011;67750;55.832;49.124;2023-11-19T09:21:36;8.60;;;3.72;;
78453;SDS011;67750;55.832;49.124;2023-11-19T09:24:06;9.03;;;3.35;;
78453;SDS011;67750;55.832;49.124;2023-11-19T09:26:36;9.23;;;3.30;;
78453;SDS011;67750;55.832;49.124;2023-11-19T09:29:07;9.10;;;3.17;;
78453;SDS011;67750;55.832;49.124;2023-11-19T09:34:26;13.83;;;3.30;;
78453;SDS011;67750;55.832;49.124;2023-11-19T09:36:56;12.18;;;3.70;;
78453;SDS011;67750;55.832;49.124;2023-11-19T09:39:25;7.45;;;3.33;;
78453;SDS011;67750;55.832;49.124;2023-11-19T09:41:55;11.35;;;4.10;;
78453;SDS011;67750;55.832;49.124;2023-11-19T09:44:25;12.53;;;3.70;;
78453;SDS011;67750;55.832;49.124;2023-11-19T09:46:54;9.73;;;3.40;;
78453;SDS011;67750;55.832;49.124;2023-11-19T09:49:24;8.58;;;3.08;;
78453;SDS011;67750;55.832;49.124;2023-11-19T09:51:55;10.10;;;3.67;;
78453;SDS011;67750;55.832;49.124;2023-11-19T09:54:25;10.25;;;3.40;;
78453;SDS011;67750;55.832;49.124;2023-11-19T09:56:55;9.75;;;3.77;;
78453;SDS011;67750;55.832;49.124;2023-11-19T09:59:45;7.75;;;3.30;;
78453;SDS011;67750;55.832;49.124;2023-11-19T10:02:15;8.48;;;3.67;;
78453;SDS011;67750;55.832;49.124;2023-11-19T10:04:45;9.58;;;4.58;;
78453;SDS011;67750;55.832;49.124;2023-11-19T10:07:16;9.05;;;3.10;;
78453;SDS011;67750;55.832;49.124;2023-11-19T10:09:46;11.97;;;3.50;;
78453;SDS011;67750;55.832;49.124;2023-11-19T10:12:16;10.98;;;3.10;;
78453;SDS011;67750;55.832;49.124;2023-11-19T10:14:45;7.20;;;4.10;;
78453;SDS011;67750;55.832;49.124;2023-11-19T10:17:17;10.20;;;3.45;;
78453;SDS011;67750;55.832;49.124;2023-11-19T10:19:48;6.45;;;2.83;;
78453;SDS011;67750;55.832;49.124;2023-11-19T10:22:17;6.30;;;2.83;;
78453;SDS011;67750;55.832;49.124;2023-11-19T10:24:47;6.22;;;3.10;;
78453;SDS011;67750;55.832;49.124;2023-11-19T10:27:16;10.03;;;3.65;;
78453;SDS011;67750;55.832;49.124;2023-11-19T10:29:46;11.88;;;3.87;;
78453;SDS011;67750;55.832;49.124;2023-11-19T10:32:16;8.88;;;3.62;;
78453;SDS011;67750;55.832;49.124;2023-11-19T10:34:45;9.43;;;4.08;;
78453;SDS011;67750;55.832;49.124;2023-11-19T10:40:05;10.98;;;4.67;;
78453;SDS011;67750;55.832;49.124;2023-11-19T10:45:04;8.28;;;3.62;;
78453;SDS011;67750;55.832;49.124;2023-11-19T10:47:34;8.00;;;3.17;;
78453;SDS011;67750;55.832;49.124;2023-11-19T10:50:04;12.40;;;3.62;;
78453;SDS011;67750;55.832;49.124;2023-11-19T10:52:34;9.30;;;2.65;;
78453;SDS011;67750;55.832;49.124;2023-11-19T10:55:06;7.17;;;3.10;;
78453;SDS011;67750;55.832;49.124;2023-11-19T10:57:36;7.50;;;2.80;;
78453;SDS011;67750;55.832;49.124;2023-11-19T11:00:07;7.40;;;3.15;;
78453;SDS011;67750;55.832;49.124;2023-11-19T11:02:59;4.37;;;2.27;;
78453;SDS011;67750;55.832;49.124;2023-11-19T11:05:29;7.75;;;3.15;;
78453;SDS011;67750;55.832;49.124;2023-11-19T11:07:59;8.78;;;2.87;;
78453;SDS011;67750;55.832;49.124;2023-11-19T11:10:29;5.15;;;2.87;;
78453;SDS011;67750;55.832;49.124;2023-11-19T11:15:51;13.48;;;3.20;;
78453;SDS011;67750;55.832;49.124;2023-11-19T11:18:23;8.40;;;3.20;;
78453;SDS011;67750;55.832;49.124;2023-11-19T11:36:57;10.68;;;4.15;;
78453;SDS011;67750;55.832;49.124;2023-11-19T11:39:24;16.50;;;4.50;;
78453;SDS011;67750;55.832;49.124;2023-11-19T11:50:25;11.78;;;4.05;;
78453;SDS011;67750;55.832;49.124;2023-11-19T11:58:35;11.18;;;2.60;;
78453;SDS011;67750;55.832;49.124;2023-11-19T12:01:05;8.00;;;3.05;;
78453;SDS011;67750;55.832;49.124;2023-11-19T12:03:36;13.93;;;3.67;;
78453;SDS011;67750;55.832;49.124;2023-11-19T12:06:06;15.28;;;3.42;;
78453;SDS011;67750;55.832;49.124;2023-11-19T12:08:35;8.65;;;2.95;;
78453;SDS011;67750;55.832;49.124;2023-11-19T12:11:05;7.10;;;2.87;;
78453;SDS011;67750;55.832;49.124;2023-11-19T12:16:26;10.85;;;3.12;;
78453;SDS011;67750;55.832;49.124;2023-11-19T12:19:01;13.98;;;3.40;;
78453;SDS011;67750;55.832;49.124;2023-11-19T12:21:30;12.07;;;4.00;;
78453;SDS011;67750;55.832;49.124;2023-11-19T12:29:23;13.78;;;4.00;;
78453;SDS011;67750;55.832;49.124;2023-11-19T12:34:42;7.22;;;2.80;;
78453;SDS011;67750;55.832;49.124;2023-11-19T12:37:11;10.35;;;4.22;;
78453;SDS011;67750;55.832;49.124;2023-11-19T12:39:41;11.83;;;3.70;;
78453;SDS011;67750;55.832;49.124;2023-11-19T12:42:10;9.15;;;4.35;;
78453;SDS011;67750;55.832;49.124;2023-11-19T12:44:53;9.20;;;3.92;;
78453;SDS011;67750;55.832;49.124;2023-11-19T12:49:42;8.65;;;3.27;;
78453;SDS011;67750;55.832;49.124;2023-11-19T12:52:11;7.80;;;3.47;;
78453;SDS011;67750;55.832;49.124;2023-11-19T12:54:41;13.40;;;3.05;;
78453;SDS011;67750;55.832;49.124;2023-11-19T12:57:11;10.08;;;2.60;;
78453;SDS011;67750;55.832;49.124;2023-11-19T12:59:40;5.78;;;2.62;;
78453;SDS011;67750;55.832;49.124;2023-11-19T13:02:10;10.98;;;3.05;;
78453;SDS011;67750;55.832;49.124;2023-11-19T13:04:39;7.47;;;2.87;;
78453;SDS011;67750;55.832;49.124;2023-11-19T13:07:09;9.03;;;3.30;;
78453;SDS011;67750;55.832;49.124;2023-11-19T13:09:39;9.90;;;4.05;;
78453;SDS011;67750;55.832;49.124;2023-11-19T13:14:41;15.20;;;3.83;;
78453;SDS011;67750;55.832;49.124;2023-11-19T13:20:01;9.73;;;3.83;;
78453;SDS011;67750;55.832;49.124;2023-11-19T13:22:32;15.38;;;4.17;;
78453;SDS011;67750;55.832;49.124;2023-11-19T13:25:02;13.75;;;4.28;;
78453;SDS011;67750;55.832;49.124;2023-11-19T13:27:32;11.22;;;3.87;;
78453;SDS011;67750;55.832;49.124;2023-11-19T13:30:04;13.10;;;3.87;;
78453;SDS011;67750;55.832;49.124;2023-11-19T13:32:33;12.40;;;4.67;;
78453;SDS011;67750;55.832;49.124;2023-11-19T13:35:03;14.23;;;4.10;;
78453;SDS011;67750;55.832;49.124;2023-11-19T13:37:34;8.68;;;3.60;;
78453;SDS011;67750;55.832;49.124;2023-11-19T13:40:06;10.15;;;3.87;;
78453;SDS011;67750;55.832;49.124;2023-11-19T13:42:40;11.08;;;3.60;;
78453;SDS011;67750;55.832;49.124;2023-11-19T13:47:59;10.53;;;2.87;;
78453;SDS011;67750;55.832;49.124;2023-11-19T13:50:28;8.38;;;2.92;;
78453;SDS011;67750;55.832;49.124;2023-11-19T13:52:59;10.85;;;3.42;;
78453;SDS011;67750;55.832;49.124;2023-11-19T13:55:29;8.35;;;3.17;;
78453;SDS011;67750;55.832;49.124;2023-11-19T13:57:58;12.28;;;3.67;;
78453;SDS011;67750;55.832;49.124;2023-11-19T14:00:28;12.30;;;2.95;;
78453;SDS011;67750;55.832;49.124;2023-11-19T14:02:57;6.87;;;2.55;;
78453;SDS011;67750;55.832;49.124;2023-11-19T14:05:26;7.42;;;2.70;;
78453;SDS011;67750;55.832;49.124;2023-11-19T14:07:56;12.75;;;3.47;;
78453;SDS011;67750;55.832;49.124;2023-11-19T14:10:26;5.83;;;2.92;;
78453;SDS011;67750;55.832;49.124;2023-11-19T14:12:55;7.00;;;3.30;;
78453;SDS011;67750;55.832;49.124;2023-11-19T14:15:25;12.00;;;3.45;;
78453;SDS011;67750;55.832;49.124;2023-11-19T14:17:55;11.20;;;2.80;;
78453;SDS011;67750;55.832;49.124;2023-11-19T14:20:25;6.72;;;3.17;;
78453;SDS011;67750;55.832;49.124;2023-11-19T14:22:55;11.28;;;3.60;;
78453;SDS011;67750;55.832;49.124;2023-11-19T14:25:24;20.02;;;5.97;;
78453;SDS011;67750;55.832;49.124;2023-11-19T14:27:54;17.67;;;5.72;;
78453;SDS011;67750;55.832;49.124;2023-11-19T14:30:23;18.73;;;5.87;;
78453;SDS011;67750;55.832;49.124;2023-11-19T14:32:53;11.15;;;3.55;;
78453;SDS011;67750;55.832;49.124;2023-11-19T14:35:23;8.30;;;3.70;;
78453;SDS011;67750;55.832;49.124;2023-11-19T14:37:52;7.25;;;3.45;;
78453;SDS011;67750;55.832;49.124;2023-11-19T14:40:22;8.23;;;3.37;;
78453;SDS011;67750;55.832;49.124;2023-11-19T14:42:51;8.73;;;3.37;;
78453;SDS011;67750;55.832;49.124;2023-11-19T14:45:21;7.33;;;3.65;;
78453;SDS011;67750;55.832;49.124;2023-11-19T14:47:50;11.08;;;3.83;;
78453;SDS011;67750;55.832;49.124;2023-11-19T14:50:21;8.75;;;3.33;;
78453;SDS011;67750;55.832;49.124;2023-11-19T14:52:51;13.20;;;4.12;;
78453;SDS011;67750;55.832;49.124;2023-11-19T14:55:20;9.80;;;3.45;;
78453;SDS011;67750;55.832;49.124;2023-11-19T14:57:50;11.10;;;3.42;;
78453;SDS011;67750;55.832;49.124;2023-11-19T15:00:19;11.90;;;3.12;;
78453;SDS011;67750;55.832;49.124;2023-11-19T15:02:49;10.75;;;4.30;;
78453;SDS011;67750;55.832;49.124;2023-11-19T15:05:18;11.45;;;4.15;;
78453;SDS011;67750;55.832;49.124;2023-11-19T15:07:48;9.85;;;4.20;;
78453;SDS011;67750;55.832;49.124;2023-11-19T15:10:17;7.70;;;3.80;;
78453;SDS011;67750;55.832;49.124;2023-11-19T15:12:48;8.20;;;3.50;;
78453;SDS011;67750;55.832;49.124;2023-11-19T15:15:17;10.82;;;3.83;;
78453;SDS011;67750;55.832;49.124;2023-11-19T15:17:47;14.50;;;3.83;;
78453;SDS011;67750;55.832;49.124;2023-11-19T15:20:17;9.45;;;3.80;;
78453;SDS011;67750;55.832;49.124;2023-11-19T15:22:46;10.60;;;3.85;;
78453;SDS011;67750;55.832;49.124;2023-11-19T15:25:16;12.88;;;4.33;;
78453;SDS011;67750;55.832;49.124;2023-11-19T15:27:46;8.68;;;3.77;;
78453;SDS011;67750;55.832;49.124;2023-11-19T15:30:15;8.95;;;3.00;;
78453;SDS011;67750;55.832;49.124;2023-11-19T15:32:45;8.35;;;3.30;;
78453;SDS011;67750;55.832;49.124;2023-11-19T15:35:14;12.15;;;4.70;;
78453;SDS011;67750;55.832;49.124;2023-11-19T15:37:44;12.35;;;4.90;;
78453;SDS011;67750;55.832;49.124;2023-11-19T15:40:13;10.63;;;4.83;;
78453;SDS011;67750;55.832;49.124;2023-11-19T15:42:43;12.50;;;4.72;;
78453;SDS011;67750;55.832;49.124;2023-11-19T15:45:14;8.48;;;4.03;;
78453;SDS011;67750;55.832;49.124;2023-11-19T15:47:43;17.82;;;6.25;;
78453;SDS011;67750;55.832;49.124;2023-11-19T15:50:13;11.60;;;4.10;;
78453;SDS011;67750;55.832;49.124;2023-11-19T15:52:42;13.10;;;4.05;;
78453;SDS011;67750;55.832;49.124;2023-11-19T15:55:12;10.23;;;3.70;;
78453;SDS011;67750;55.832;49.124;2023-11-19T15:57:43;7.25;;;3.02;;